sensor_id;sensor_type;location;lat;lon;timestamp;temperature;humidity
23783;DHT22;12071;50.850;4.446;2024-02-23T00:00:04;6.30;1.00
23783;DHT22;12071;50.850;4.446;2024-02-23T00:02:33;6.30;1.00
23783;DHT22;12071;50.850;4.446;2024-02-23T00:04:59;6.30;1.00
23783;DHT22;12071;50.850;4.446;2024-02-23T00:07:25;6.30;1.00
23783;DHT22;12071;50.850;4.446;2024-02-23T00:09:50;6.30;1.00
23783;DHT22;12071;50.850;4.446;2024-02-23T00:12:16;6.30;1.00
23783;DHT22;12071;50.850;4.446;2024-02-23T00:14:41;6.30;1.00
23783;DHT22;12071;50.850;4.446;2024-02-23T00:17:07;6.20;1.00
23783;DHT22;12071;50.850;4.446;2024-02-23T00:19:33;6.40;1.00
23783;DHT22;12071;50.850;4.446;2024-02-23T00:21:59;6.40;1.00
23783;DHT22;12071;50.850;4.446;2024-02-23T00:24:25;6.30;1.00
23783;DHT22;12071;50.850;4.446;2024-02-23T00:26:51;6.20;1.00
23783;DHT22;12071;50.850;4.446;2024-02-23T00:29:18;6.30;1.00
23783;DHT22;12071;50.850;4.446;2024-02-23T00:31:43;6.20;1.00
23783;DHT22;12071;50.850;4.446;2024-02-23T00:34:12;6.00;1.00
23783;DHT22;12071;50.850;4.446;2024-02-23T00:36:42;6.00;1.00
23783;DHT22;12071;50.850;4.446;2024-02-23T00:39:08;5.90;1.00
23783;DHT22;12071;50.850;4.446;2024-02-23T00:41:34;6.10;1.00
23783;DHT22;12071;50.850;4.446;2024-02-23T00:44:01;6.20;1.00
23783;DHT22;12071;50.850;4.446;2024-02-23T00:46:27;6.20;1.00
23783;DHT22;12071;50.850;4.446;2024-02-23T00:48:53;6.10;1.00
23783;DHT22;12071;50.850;4.446;2024-02-23T00:51:19;5.90;1.00
23783;DHT22;12071;50.850;4.446;2024-02-23T00:53:45;5.80;1.00
23783;DHT22;12071;50.850;4.446;2024-02-23T00:56:10;5.70;1.00
23783;DHT22;12071;50.850;4.446;2024-02-23T00:58:39;5.70;1.00
23783;DHT22;12071;50.850;4.446;2024-02-23T01:01:04;5.80;1.00
23783;DHT22;12071;50.850;4.446;2024-02-23T01:03:30;5.70;1.00
23783;DHT22;12071;50.850;4.446;2024-02-23T01:05:56;5.80;1.00
23783;DHT22;12071;50.850;4.446;2024-02-23T01:08:21;5.80;1.00
23783;DHT22;12071;50.850;4.446;2024-02-23T01:10:47;5.80;1.00
23783;DHT22;12071;50.850;4.446;2024-02-23T01:13:13;5.80;1.00
23783;DHT22;12071;50.850;4.446;2024-02-23T01:15:39;5.80;1.00
23783;DHT22;12071;50.850;4.446;2024-02-23T01:18:06;5.80;1.00
23783;DHT22;12071;50.850;4.446;2024-02-23T01:20:34;5.80;1.00
23783;DHT22;12071;50.850;4.446;2024-02-23T01:23:00;5.70;1.00
23783;DHT22;12071;50.850;4.446;2024-02-23T01:25:26;5.80;1.00
23783;DHT22;12071;50.850;4.446;2024-02-23T01:27:52;5.80;1.00
23783;DHT22;12071;50.850;4.446;2024-02-23T01:30:17;5.70;1.00
23783;DHT22;12071;50.850;4.446;2024-02-23T01:32:45;5.70;1.00
23783;DHT22;12071;50.850;4.446;2024-02-23T01:35:11;5.60;1.00
23783;DHT22;12071;50.850;4.446;2024-02-23T01:37:36;5.70;1.00
23783;DHT22;12071;50.850;4.446;2024-02-23T01:40:03;5.70;1.00
23783;DHT22;12071;50.850;4.446;2024-02-23T01:42:29;5.80;1.00
23783;DHT22;12071;50.850;4.446;2024-02-23T01:44:55;5.90;1.00
23783;DHT22;12071;50.850;4.446;2024-02-23T01:47:24;5.80;1.00
23783;DHT22;12071;50.850;4.446;2024-02-23T01:49:51;5.70;1.00
23783;DHT22;12071;50.850;4.446;2024-02-23T01:52:17;5.70;1.00
23783;DHT22;12071;50.850;4.446;2024-02-23T01:54:44;5.70;1.00
23783;DHT22;12071;50.850;4.446;2024-02-23T01:57:10;5.90;1.00
23783;DHT22;12071;50.850;4.446;2024-02-23T01:59:38;6.00;1.00
23783;DHT22;12071;50.850;4.446;2024-02-23T02:02:04;5.90;1.00
23783;DHT22;12071;50.850;4.446;2024-02-23T02:04:30;6.00;1.00
23783;DHT22;12071;50.850;4.446;2024-02-23T02:06:57;6.00;1.00
23783;DHT22;12071;50.850;4.446;2024-02-23T02:09:25;6.10;1.00
23783;DHT22;12071;50.850;4.446;2024-02-23T02:11:51;6.20;1.00
23783;DHT22;12071;50.850;4.446;2024-02-23T02:14:17;6.20;1.00
23783;DHT22;12071;50.850;4.446;2024-02-23T02:16:43;6.10;1.00
23783;DHT22;12071;50.850;4.446;2024-02-23T02:19:12;6.20;1.00
23783;DHT22;12071;50.850;4.446;2024-02-23T02:21:39;6.20;1.00
23783;DHT22;12071;50.850;4.446;2024-02-23T02:24:06;6.20;1.00
23783;DHT22;12071;50.850;4.446;2024-02-23T02:26:32;6.10;1.00
23783;DHT22;12071;50.850;4.446;2024-02-23T02:28:57;6.20;1.00
23783;DHT22;12071;50.850;4.446;2024-02-23T02:31:24;6.30;1.00
23783;DHT22;12071;50.850;4.446;2024-02-23T02:33:50;6.40;1.00
23783;DHT22;12071;50.850;4.446;2024-02-23T02:36:15;6.30;1.00
23783;DHT22;12071;50.850;4.446;2024-02-23T02:38:41;6.30;1.00
23783;DHT22;12071;50.850;4.446;2024-02-23T02:41:08;6.20;1.00
23783;DHT22;12071;50.850;4.446;2024-02-23T02:43:34;6.10;1.00
23783;DHT22;12071;50.850;4.446;2024-02-23T02:46:00;6.20;1.00
23783;DHT22;12071;50.850;4.446;2024-02-23T02:48:25;6.20;1.00
23783;DHT22;12071;50.850;4.446;2024-02-23T02:50:51;6.20;1.00
23783;DHT22;12071;50.850;4.446;2024-02-23T02:53:17;6.20;1.00
23783;DHT22;12071;50.850;4.446;2024-02-23T02:55:44;6.30;1.00
23783;DHT22;12071;50.850;4.446;2024-02-23T02:58:13;6.40;1.00
23783;DHT22;12071;50.850;4.446;2024-02-23T03:00:39;6.30;1.00
23783;DHT22;12071;50.850;4.446;2024-02-23T03:03:05;6.30;1.00
23783;DHT22;12071;50.850;4.446;2024-02-23T03:05:31;6.30;1.00
23783;DHT22;12071;50.850;4.446;2024-02-23T03:07:57;6.20;1.00
23783;DHT22;12071;50.850;4.446;2024-02-23T03:10:22;6.40;1.00
23783;DHT22;12071;50.850;4.446;2024-02-23T03:12:48;6.50;1.00
23783;DHT22;12071;50.850;4.446;2024-02-23T03:15:14;6.50;1.00
23783;DHT22;12071;50.850;4.446;2024-02-23T03:17:40;6.50;1.00
23783;DHT22;12071;50.850;4.446;2024-02-23T03:20:06;6.50;1.00
23783;DHT22;12071;50.850;4.446;2024-02-23T03:22:37;6.40;1.00
23783;DHT22;12071;50.850;4.446;2024-02-23T03:25:04;6.40;1.00
23783;DHT22;12071;50.850;4.446;2024-02-23T03:27:34;6.20;1.00
23783;DHT22;12071;50.850;4.446;2024-02-23T03:30:03;6.20;1.00
23783;DHT22;12071;50.850;4.446;2024-02-23T03:32:29;6.30;1.00
23783;DHT22;12071;50.850;4.446;2024-02-23T03:34:56;6.30;1.00
23783;DHT22;12071;50.850;4.446;2024-02-23T03:37:22;6.40;1.00
23783;DHT22;12071;50.850;4.446;2024-02-23T03:39:48;6.30;1.00
23783;DHT22;12071;50.850;4.446;2024-02-23T03:42:14;6.30;1.00
23783;DHT22;12071;50.850;4.446;2024-02-23T03:44:40;6.30;1.00
23783;DHT22;12071;50.850;4.446;2024-02-23T03:47:08;6.30;1.00
23783;DHT22;12071;50.850;4.446;2024-02-23T03:49:34;6.30;1.00
23783;DHT22;12071;50.850;4.446;2024-02-23T03:51:59;6.30;1.00
23783;DHT22;12071;50.850;4.446;2024-02-23T03:54:25;6.30;1.00
23783;DHT22;12071;50.850;4.446;2024-02-23T03:56:50;6.40;1.00
23783;DHT22;12071;50.850;4.446;2024-02-23T03:59:16;6.50;1.00
23783;DHT22;12071;50.850;4.446;2024-02-23T04:01:42;6.50;1.00
23783;DHT22;12071;50.850;4.446;2024-02-23T04:04:08;6.40;1.00
23783;DHT22;12071;50.850;4.446;2024-02-23T04:06:34;6.50;1.00
23783;DHT22;12071;50.850;4.446;2024-02-23T04:09:00;6.50;1.00
23783;DHT22;12071;50.850;4.446;2024-02-23T04:11:26;6.40;1.00
23783;DHT22;12071;50.850;4.446;2024-02-23T04:13:51;6.40;1.00
23783;DHT22;12071;50.850;4.446;2024-02-23T04:16:17;6.50;1.00
23783;DHT22;12071;50.850;4.446;2024-02-23T04:18:43;6.50;1.00
23783;DHT22;12071;50.850;4.446;2024-02-23T04:21:08;6.60;1.00
23783;DHT22;12071;50.850;4.446;2024-02-23T04:23:34;6.60;1.00
23783;DHT22;12071;50.850;4.446;2024-02-23T04:26:00;6.60;1.00
23783;DHT22;12071;50.850;4.446;2024-02-23T04:28:25;6.70;1.00
23783;DHT22;12071;50.850;4.446;2024-02-23T04:30:56;6.50;1.00
23783;DHT22;12071;50.850;4.446;2024-02-23T04:33:22;6.60;1.00
23783;DHT22;12071;50.850;4.446;2024-02-23T04:35:47;6.60;1.00
23783;DHT22;12071;50.850;4.446;2024-02-23T04:38:13;6.50;1.00
23783;DHT22;12071;50.850;4.446;2024-02-23T04:40:38;6.40;1.00
23783;DHT22;12071;50.850;4.446;2024-02-23T04:43:04;6.50;1.00
23783;DHT22;12071;50.850;4.446;2024-02-23T04:45:30;6.50;1.00
23783;DHT22;12071;50.850;4.446;2024-02-23T04:47:55;6.60;1.00
23783;DHT22;12071;50.850;4.446;2024-02-23T04:50:21;6.60;1.00
23783;DHT22;12071;50.850;4.446;2024-02-23T04:52:47;6.50;1.00
23783;DHT22;12071;50.850;4.446;2024-02-23T04:55:12;6.60;1.00
23783;DHT22;12071;50.850;4.446;2024-02-23T04:57:38;6.70;1.00
23783;DHT22;12071;50.850;4.446;2024-02-23T05:00:05;6.70;1.00
23783;DHT22;12071;50.850;4.446;2024-02-23T05:02:33;6.70;99.90
23783;DHT22;12071;50.850;4.446;2024-02-23T05:05:04;6.60;99.90
23783;DHT22;12071;50.850;4.446;2024-02-23T05:07:33;6.70;1.00
23783;DHT22;12071;50.850;4.446;2024-02-23T05:09:58;6.70;1.00
23783;DHT22;12071;50.850;4.446;2024-02-23T05:12:24;6.70;1.00
23783;DHT22;12071;50.850;4.446;2024-02-23T05:14:50;6.80;99.90
23783;DHT22;12071;50.850;4.446;2024-02-23T05:17:17;6.70;1.00
23783;DHT22;12071;50.850;4.446;2024-02-23T05:19:43;6.80;1.00
23783;DHT22;12071;50.850;4.446;2024-02-23T05:22:09;6.70;99.90
23783;DHT22;12071;50.850;4.446;2024-02-23T05:24:34;6.60;1.00
23783;DHT22;12071;50.850;4.446;2024-02-23T05:27:00;6.50;1.00
23783;DHT22;12071;50.850;4.446;2024-02-23T05:29:28;6.50;1.00
23783;DHT22;12071;50.850;4.446;2024-02-23T05:31:54;6.50;1.00
23783;DHT22;12071;50.850;4.446;2024-02-23T05:34:20;6.60;1.00
23783;DHT22;12071;50.850;4.446;2024-02-23T05:36:47;6.60;1.00
23783;DHT22;12071;50.850;4.446;2024-02-23T05:39:14;6.60;1.00
23783;DHT22;12071;50.850;4.446;2024-02-23T05:41:44;6.60;1.00
23783;DHT22;12071;50.850;4.446;2024-02-23T05:44:10;6.60;1.00
23783;DHT22;12071;50.850;4.446;2024-02-23T05:46:36;6.60;99.90
23783;DHT22;12071;50.850;4.446;2024-02-23T05:49:03;6.70;99.90
23783;DHT22;12071;50.850;4.446;2024-02-23T05:51:30;6.60;99.90
23783;DHT22;12071;50.850;4.446;2024-02-23T05:53:56;6.60;99.90
23783;DHT22;12071;50.850;4.446;2024-02-23T05:56:23;6.60;99.90
23783;DHT22;12071;50.850;4.446;2024-02-23T05:58:51;6.60;1.00
23783;DHT22;12071;50.850;4.446;2024-02-23T06:01:18;6.70;99.90
23783;DHT22;12071;50.850;4.446;2024-02-23T06:03:44;6.60;99.90
23783;DHT22;12071;50.850;4.446;2024-02-23T06:06:10;6.60;99.90
23783;DHT22;12071;50.850;4.446;2024-02-23T06:08:36;6.60;99.90
23783;DHT22;12071;50.850;4.446;2024-02-23T06:11:03;6.60;99.90
23783;DHT22;12071;50.850;4.446;2024-02-23T06:13:30;6.60;99.90
23783;DHT22;12071;50.850;4.446;2024-02-23T06:15:55;6.60;99.90
23783;DHT22;12071;50.850;4.446;2024-02-23T06:18:21;6.70;99.90
23783;DHT22;12071;50.850;4.446;2024-02-23T06:20:48;6.80;99.90
23783;DHT22;12071;50.850;4.446;2024-02-23T06:23:14;6.80;99.90
23783;DHT22;12071;50.850;4.446;2024-02-23T06:25:40;6.80;99.90
23783;DHT22;12071;50.850;4.446;2024-02-23T06:28:06;6.70;99.90
23783;DHT22;12071;50.850;4.446;2024-02-23T06:30:32;6.70;99.90
23783;DHT22;12071;50.850;4.446;2024-02-23T06:32:57;6.70;99.90
23783;DHT22;12071;50.850;4.446;2024-02-23T06:35:23;6.70;99.90
23783;DHT22;12071;50.850;4.446;2024-02-23T06:37:49;6.80;99.90
23783;DHT22;12071;50.850;4.446;2024-02-23T06:40:15;6.90;99.90
23783;DHT22;12071;50.850;4.446;2024-02-23T06:42:40;6.90;99.90
23783;DHT22;12071;50.850;4.446;2024-02-23T06:45:06;7.00;99.90
23783;DHT22;12071;50.850;4.446;2024-02-23T06:47:33;7.00;99.90
23783;DHT22;12071;50.850;4.446;2024-02-23T06:49:59;6.90;99.90
23783;DHT22;12071;50.850;4.446;2024-02-23T06:52:25;6.80;99.90
23783;DHT22;12071;50.850;4.446;2024-02-23T06:54:52;6.90;99.90
23783;DHT22;12071;50.850;4.446;2024-02-23T06:57:17;7.00;99.90
23783;DHT22;12071;50.850;4.446;2024-02-23T06:59:43;6.90;99.90
23783;DHT22;12071;50.850;4.446;2024-02-23T07:02:09;6.90;99.90
23783;DHT22;12071;50.850;4.446;2024-02-23T07:04:34;6.90;99.90
23783;DHT22;12071;50.850;4.446;2024-02-23T07:07:00;6.80;99.90
23783;DHT22;12071;50.850;4.446;2024-02-23T07:09:35;6.80;99.90
23783;DHT22;12071;50.850;4.446;2024-02-23T07:12:01;6.80;99.90
23783;DHT22;12071;50.850;4.446;2024-02-23T07:14:26;6.90;99.90
23783;DHT22;12071;50.850;4.446;2024-02-23T07:16:52;7.00;99.90
23783;DHT22;12071;50.850;4.446;2024-02-23T07:19:18;7.10;99.90
23783;DHT22;12071;50.850;4.446;2024-02-23T07:21:45;7.20;99.90
23783;DHT22;12071;50.850;4.446;2024-02-23T07:24:11;7.20;99.90
23783;DHT22;12071;50.850;4.446;2024-02-23T07:26:37;7.20;99.90
23783;DHT22;12071;50.850;4.446;2024-02-23T07:29:03;7.20;99.90
23783;DHT22;12071;50.850;4.446;2024-02-23T07:31:29;7.20;99.90
23783;DHT22;12071;50.850;4.446;2024-02-23T07:33:56;7.20;99.90
23783;DHT22;12071;50.850;4.446;2024-02-23T07:36:21;7.20;99.90
23783;DHT22;12071;50.850;4.446;2024-02-23T07:38:47;7.10;99.90
23783;DHT22;12071;50.850;4.446;2024-02-23T07:41:14;7.20;99.90
23783;DHT22;12071;50.850;4.446;2024-02-23T07:43:40;7.30;99.90
23783;DHT22;12071;50.850;4.446;2024-02-23T07:46:05;7.30;99.90
23783;DHT22;12071;50.850;4.446;2024-02-23T07:48:34;7.50;99.90
23783;DHT22;12071;50.850;4.446;2024-02-23T07:51:02;7.40;99.90
23783;DHT22;12071;50.850;4.446;2024-02-23T07:53:29;7.60;99.90
23783;DHT22;12071;50.850;4.446;2024-02-23T07:55:55;7.60;99.90
23783;DHT22;12071;50.850;4.446;2024-02-23T07:58:21;7.50;99.90
23783;DHT22;12071;50.850;4.446;2024-02-23T08:00:47;7.50;99.90
23783;DHT22;12071;50.850;4.446;2024-02-23T08:03:13;7.50;99.90
23783;DHT22;12071;50.850;4.446;2024-02-23T08:05:39;7.60;99.90
23783;DHT22;12071;50.850;4.446;2024-02-23T08:08:05;7.60;99.90
23783;DHT22;12071;50.850;4.446;2024-02-23T08:10:32;7.40;99.90
23783;DHT22;12071;50.850;4.446;2024-02-23T08:12:59;7.40;99.90
23783;DHT22;12071;50.850;4.446;2024-02-23T08:15:25;7.40;99.90
23783;DHT22;12071;50.850;4.446;2024-02-23T08:17:50;7.20;1.00
23783;DHT22;12071;50.850;4.446;2024-02-23T08:20:16;7.20;1.00
23783;DHT22;12071;50.850;4.446;2024-02-23T08:22:42;7.10;1.00
23783;DHT22;12071;50.850;4.446;2024-02-23T08:25:08;7.00;1.00
23783;DHT22;12071;50.850;4.446;2024-02-23T08:27:34;7.10;1.00
23783;DHT22;12071;50.850;4.446;2024-02-23T08:29:59;7.00;1.00
23783;DHT22;12071;50.850;4.446;2024-02-23T08:32:25;7.00;1.00
23783;DHT22;12071;50.850;4.446;2024-02-23T08:34:50;7.00;1.00
23783;DHT22;12071;50.850;4.446;2024-02-23T08:37:18;6.90;1.00
23783;DHT22;12071;50.850;4.446;2024-02-23T08:39:44;6.80;1.00
23783;DHT22;12071;50.850;4.446;2024-02-23T08:42:10;6.80;1.00
23783;DHT22;12071;50.850;4.446;2024-02-23T08:44:37;6.80;1.00
23783;DHT22;12071;50.850;4.446;2024-02-23T08:47:04;6.90;1.00
23783;DHT22;12071;50.850;4.446;2024-02-23T08:49:30;6.90;1.00
23783;DHT22;12071;50.850;4.446;2024-02-23T08:51:56;7.00;1.00
23783;DHT22;12071;50.850;4.446;2024-02-23T08:54:23;7.00;1.00
23783;DHT22;12071;50.850;4.446;2024-02-23T08:56:49;7.00;1.00
23783;DHT22;12071;50.850;4.446;2024-02-23T08:59:15;7.00;1.00
23783;DHT22;12071;50.850;4.446;2024-02-23T09:01:40;7.00;1.00
23783;DHT22;12071;50.850;4.446;2024-02-23T09:04:06;6.80;1.00
23783;DHT22;12071;50.850;4.446;2024-02-23T09:06:32;6.80;1.00
23783;DHT22;12071;50.850;4.446;2024-02-23T09:09:01;6.80;1.00
23783;DHT22;12071;50.850;4.446;2024-02-23T09:11:26;6.80;1.00
23783;DHT22;12071;50.850;4.446;2024-02-23T09:13:52;6.80;1.00
23783;DHT22;12071;50.850;4.446;2024-02-23T09:16:18;6.80;1.00
23783;DHT22;12071;50.850;4.446;2024-02-23T09:18:44;6.90;1.00
23783;DHT22;12071;50.850;4.446;2024-02-23T09:21:10;6.80;1.00
23783;DHT22;12071;50.850;4.446;2024-02-23T09:23:36;6.80;1.00
23783;DHT22;12071;50.850;4.446;2024-02-23T09:26:09;6.90;1.00
23783;DHT22;12071;50.850;4.446;2024-02-23T09:28:35;7.00;1.00
23783;DHT22;12071;50.850;4.446;2024-02-23T09:31:00;7.00;1.00
23783;DHT22;12071;50.850;4.446;2024-02-23T09:33:26;7.10;1.00
23783;DHT22;12071;50.850;4.446;2024-02-23T09:35:52;7.10;1.00
23783;DHT22;12071;50.850;4.446;2024-02-23T09:38:18;7.20;1.00
23783;DHT22;12071;50.850;4.446;2024-02-23T09:40:45;7.20;1.00
23783;DHT22;12071;50.850;4.446;2024-02-23T09:43:12;7.30;1.00
23783;DHT22;12071;50.850;4.446;2024-02-23T09:45:39;7.30;1.00
23783;DHT22;12071;50.850;4.446;2024-02-23T09:48:07;7.40;1.00
23783;DHT22;12071;50.850;4.446;2024-02-23T09:50:33;7.60;1.00
23783;DHT22;12071;50.850;4.446;2024-02-23T09:53:01;7.80;1.00
23783;DHT22;12071;50.850;4.446;2024-02-23T09:55:29;7.80;1.00
23783;DHT22;12071;50.850;4.446;2024-02-23T09:57:57;7.90;1.00
23783;DHT22;12071;50.850;4.446;2024-02-23T10:00:24;7.90;1.00
23783;DHT22;12071;50.850;4.446;2024-02-23T10:02:50;8.00;1.00
23783;DHT22;12071;50.850;4.446;2024-02-23T10:05:16;8.10;1.00
23783;DHT22;12071;50.850;4.446;2024-02-23T10:07:42;8.10;1.00
23783;DHT22;12071;50.850;4.446;2024-02-23T10:10:09;8.10;1.00
23783;DHT22;12071;50.850;4.446;2024-02-23T10:12:36;7.80;1.00
23783;DHT22;12071;50.850;4.446;2024-02-23T10:15:03;7.90;1.00
23783;DHT22;12071;50.850;4.446;2024-02-23T10:17:30;7.90;1.00
23783;DHT22;12071;50.850;4.446;2024-02-23T10:19:56;8.00;1.00
23783;DHT22;12071;50.850;4.446;2024-02-23T10:22:23;8.10;1.00
23783;DHT22;12071;50.850;4.446;2024-02-23T10:24:53;8.20;1.00
23783;DHT22;12071;50.850;4.446;2024-02-23T10:27:19;8.40;99.90
23783;DHT22;12071;50.850;4.446;2024-02-23T10:29:49;8.50;99.90
23783;DHT22;12071;50.850;4.446;2024-02-23T10:32:17;8.50;99.90
23783;DHT22;12071;50.850;4.446;2024-02-23T10:34:44;8.40;99.90
23783;DHT22;12071;50.850;4.446;2024-02-23T10:37:12;8.50;99.90
23783;DHT22;12071;50.850;4.446;2024-02-23T10:39:38;8.60;99.90
23783;DHT22;12071;50.850;4.446;2024-02-23T10:42:08;8.60;99.90
23783;DHT22;12071;50.850;4.446;2024-02-23T10:44:37;8.70;99.90
23783;DHT22;12071;50.850;4.446;2024-02-23T10:47:02;8.90;99.90
23783;DHT22;12071;50.850;4.446;2024-02-23T10:49:31;8.80;99.90
23783;DHT22;12071;50.850;4.446;2024-02-23T10:51:58;8.80;99.90
23783;DHT22;12071;50.850;4.446;2024-02-23T10:54:25;8.70;99.90
23783;DHT22;12071;50.850;4.446;2024-02-23T10:56:52;8.60;99.90
23783;DHT22;12071;50.850;4.446;2024-02-23T10:59:19;8.60;99.90
23783;DHT22;12071;50.850;4.446;2024-02-23T11:01:49;8.50;99.90
23783;DHT22;12071;50.850;4.446;2024-02-23T11:04:16;8.70;99.90
23783;DHT22;12071;50.850;4.446;2024-02-23T11:06:42;8.80;99.90
23783;DHT22;12071;50.850;4.446;2024-02-23T11:09:12;8.90;99.90
23783;DHT22;12071;50.850;4.446;2024-02-23T11:11:38;8.90;99.90
23783;DHT22;12071;50.850;4.446;2024-02-23T11:14:07;8.90;99.90
23783;DHT22;12071;50.850;4.446;2024-02-23T11:16:39;9.00;99.90
23783;DHT22;12071;50.850;4.446;2024-02-23T11:19:07;9.00;99.90
23783;DHT22;12071;50.850;4.446;2024-02-23T11:21:38;9.00;99.90
23783;DHT22;12071;50.850;4.446;2024-02-23T11:24:04;8.90;99.90
23783;DHT22;12071;50.850;4.446;2024-02-23T11:26:30;8.90;99.90
23783;DHT22;12071;50.850;4.446;2024-02-23T11:28:57;8.90;99.90
23783;DHT22;12071;50.850;4.446;2024-02-23T11:31:30;8.70;99.90
23783;DHT22;12071;50.850;4.446;2024-02-23T11:33:57;8.70;99.90
23783;DHT22;12071;50.850;4.446;2024-02-23T11:36:30;8.70;99.90
23783;DHT22;12071;50.850;4.446;2024-02-23T11:38:58;8.80;99.90
23783;DHT22;12071;50.850;4.446;2024-02-23T11:41:25;9.00;99.90
23783;DHT22;12071;50.850;4.446;2024-02-23T11:43:53;9.00;99.90
23783;DHT22;12071;50.850;4.446;2024-02-23T11:46:21;9.10;99.90
23783;DHT22;12071;50.850;4.446;2024-02-23T11:48:48;9.20;99.90
23783;DHT22;12071;50.850;4.446;2024-02-23T11:51:22;9.40;99.90
23783;DHT22;12071;50.850;4.446;2024-02-23T11:53:48;9.60;82.90
23783;DHT22;12071;50.850;4.446;2024-02-23T11:56:14;9.50;1.00
23783;DHT22;12071;50.850;4.446;2024-02-23T11:58:41;9.20;6.20
23783;DHT22;12071;50.850;4.446;2024-02-23T12:01:07;9.10;19.60
23783;DHT22;12071;50.850;4.446;2024-02-23T12:03:33;9.10;1.00
23783;DHT22;12071;50.850;4.446;2024-02-23T12:06:02;9.30;1.00
23783;DHT22;12071;50.850;4.446;2024-02-23T12:08:30;9.50;1.00
23783;DHT22;12071;50.850;4.446;2024-02-23T12:11:06;9.90;1.00
23783;DHT22;12071;50.850;4.446;2024-02-23T12:13:34;10.00;99.90
23783;DHT22;12071;50.850;4.446;2024-02-23T12:16:00;9.80;99.90
23783;DHT22;12071;50.850;4.446;2024-02-23T12:18:26;9.60;99.90
23783;DHT22;12071;50.850;4.446;2024-02-23T12:20:52;9.50;1.00
23783;DHT22;12071;50.850;4.446;2024-02-23T12:23:18;9.60;1.00
23783;DHT22;12071;50.850;4.446;2024-02-23T12:25:57;9.80;99.90
23783;DHT22;12071;50.850;4.446;2024-02-23T12:28:23;10.00;99.90
23783;DHT22;12071;50.850;4.446;2024-02-23T12:31:02;9.80;99.90
23783;DHT22;12071;50.850;4.446;2024-02-23T12:33:38;9.70;99.90
23783;DHT22;12071;50.850;4.446;2024-02-23T12:36:07;9.90;99.90
23783;DHT22;12071;50.850;4.446;2024-02-23T12:38:33;9.90;99.90
23783;DHT22;12071;50.850;4.446;2024-02-23T12:41:01;9.80;99.90
23783;DHT22;12071;50.850;4.446;2024-02-23T12:43:28;9.80;99.90
23783;DHT22;12071;50.850;4.446;2024-02-23T12:45:54;10.00;99.90
23783;DHT22;12071;50.850;4.446;2024-02-23T12:48:20;10.10;5.20
23783;DHT22;12071;50.850;4.446;2024-02-23T12:50:47;10.10;99.90
23783;DHT22;12071;50.850;4.446;2024-02-23T12:56:02;9.90;1.00
23783;DHT22;12071;50.850;4.446;2024-02-23T12:58:28;9.80;99.90
23783;DHT22;12071;50.850;4.446;2024-02-23T13:00:55;10.00;99.90
23783;DHT22;12071;50.850;4.446;2024-02-23T13:03:21;10.30;1.00
23783;DHT22;12071;50.850;4.446;2024-02-23T13:05:46;10.40;1.00
23783;DHT22;12071;50.850;4.446;2024-02-23T13:08:12;10.60;99.90
23783;DHT22;12071;50.850;4.446;2024-02-23T13:10:38;10.40;99.90
23783;DHT22;12071;50.850;4.446;2024-02-23T13:13:04;10.30;99.90
23783;DHT22;12071;50.850;4.446;2024-02-23T13:15:29;10.40;1.00
23783;DHT22;12071;50.850;4.446;2024-02-23T13:17:58;10.20;99.90
23783;DHT22;12071;50.850;4.446;2024-02-23T13:20:25;10.30;99.90
23783;DHT22;12071;50.850;4.446;2024-02-23T13:22:51;10.50;99.90
23783;DHT22;12071;50.850;4.446;2024-02-23T13:25:16;10.50;31.80
23783;DHT22;12071;50.850;4.446;2024-02-23T13:27:42;10.70;1.00
23783;DHT22;12071;50.850;4.446;2024-02-23T13:30:08;10.60;99.90
23783;DHT22;12071;50.850;4.446;2024-02-23T13:32:34;10.50;13.40
23783;DHT22;12071;50.850;4.446;2024-02-23T13:35:00;10.60;7.90
23783;DHT22;12071;50.850;4.446;2024-02-23T13:37:29;10.50;99.90
23783;DHT22;12071;50.850;4.446;2024-02-23T13:39:55;10.30;99.90
23783;DHT22;12071;50.850;4.446;2024-02-23T13:42:21;10.20;99.90
23783;DHT22;12071;50.850;4.446;2024-02-23T13:44:46;10.30;99.90
23783;DHT22;12071;50.850;4.446;2024-02-23T13:47:12;10.10;99.90
23783;DHT22;12071;50.850;4.446;2024-02-23T13:49:38;10.30;99.90
23783;DHT22;12071;50.850;4.446;2024-02-23T13:52:03;10.30;99.90
23783;DHT22;12071;50.850;4.446;2024-02-23T13:54:29;10.40;99.90
23783;DHT22;12071;50.850;4.446;2024-02-23T13:56:55;10.40;99.90
23783;DHT22;12071;50.850;4.446;2024-02-23T13:59:20;10.30;1.00
23783;DHT22;12071;50.850;4.446;2024-02-23T14:01:46;10.50;99.90
23783;DHT22;12071;50.850;4.446;2024-02-23T14:04:12;10.60;1.00
23783;DHT22;12071;50.850;4.446;2024-02-23T14:06:38;10.60;99.90
23783;DHT22;12071;50.850;4.446;2024-02-23T14:09:04;10.80;1.00
23783;DHT22;12071;50.850;4.446;2024-02-23T14:11:30;10.90;99.90
23783;DHT22;12071;50.850;4.446;2024-02-23T14:13:56;11.10;99.90
23783;DHT22;12071;50.850;4.446;2024-02-23T14:16:22;11.20;99.90
23783;DHT22;12071;50.850;4.446;2024-02-23T14:18:51;11.30;90.20
23783;DHT22;12071;50.850;4.446;2024-02-23T14:21:17;11.30;1.00
23783;DHT22;12071;50.850;4.446;2024-02-23T14:23:43;10.80;99.90
23783;DHT22;12071;50.850;4.446;2024-02-23T14:26:09;10.90;99.90
23783;DHT22;12071;50.850;4.446;2024-02-23T14:28:35;11.20;99.90
23783;DHT22;12071;50.850;4.446;2024-02-23T14:31:01;11.50;42.40
23783;DHT22;12071;50.850;4.446;2024-02-23T14:33:26;11.20;99.90
23783;DHT22;12071;50.850;4.446;2024-02-23T14:35:52;11.30;1.00
23783;DHT22;12071;50.850;4.446;2024-02-23T14:38:18;11.20;99.90
23783;DHT22;12071;50.850;4.446;2024-02-23T14:40:44;10.90;1.00
23783;DHT22;12071;50.850;4.446;2024-02-23T14:43:10;10.70;99.90
23783;DHT22;12071;50.850;4.446;2024-02-23T14:45:36;10.80;1.00
23783;DHT22;12071;50.850;4.446;2024-02-23T14:48:02;10.80;1.00
23783;DHT22;12071;50.850;4.446;2024-02-23T14:50:28;10.90;99.90
23783;DHT22;12071;50.850;4.446;2024-02-23T14:52:54;11.10;1.00
23783;DHT22;12071;50.850;4.446;2024-02-23T14:55:20;11.80;1.00
23783;DHT22;12071;50.850;4.446;2024-02-23T14:57:45;13.10;1.00
23783;DHT22;12071;50.850;4.446;2024-02-23T15:00:12;13.40;99.90
23783;DHT22;12071;50.850;4.446;2024-02-23T15:02:38;12.70;99.90
23783;DHT22;12071;50.850;4.446;2024-02-23T15:05:05;12.10;1.00
23783;DHT22;12071;50.850;4.446;2024-02-23T15:07:32;11.70;99.90
23783;DHT22;12071;50.850;4.446;2024-02-23T15:09:58;11.50;1.00
23783;DHT22;12071;50.850;4.446;2024-02-23T15:12:26;11.90;99.90
23783;DHT22;12071;50.850;4.446;2024-02-23T15:14:53;12.10;67.70
23783;DHT22;12071;50.850;4.446;2024-02-23T15:17:19;11.70;46.30
23783;DHT22;12071;50.850;4.446;2024-02-23T15:19:45;11.40;1.00
23783;DHT22;12071;50.850;4.446;2024-02-23T15:22:11;11.30;99.90
23783;DHT22;12071;50.850;4.446;2024-02-23T15:24:40;11.10;1.00
23783;DHT22;12071;50.850;4.446;2024-02-23T15:27:08;11.00;99.90
23783;DHT22;12071;50.850;4.446;2024-02-23T15:29:34;10.90;99.90
23783;DHT22;12071;50.850;4.446;2024-02-23T15:32:00;11.00;99.90
23783;DHT22;12071;50.850;4.446;2024-02-23T15:34:26;10.80;99.90
23783;DHT22;12071;50.850;4.446;2024-02-23T15:36:52;10.70;99.90
23783;DHT22;12071;50.850;4.446;2024-02-23T15:39:19;10.70;99.90
23783;DHT22;12071;50.850;4.446;2024-02-23T15:41:44;10.60;1.00
23783;DHT22;12071;50.850;4.446;2024-02-23T15:44:11;10.50;1.00
23783;DHT22;12071;50.850;4.446;2024-02-23T15:46:36;10.60;1.00
23783;DHT22;12071;50.850;4.446;2024-02-23T15:49:03;10.60;1.00